Aviation Digital Data Service (ADDS)

Output produced by TAFs form (1742 UTC 03 December 2016)
found at http://aviationweather.gov/adds/tafs/
 
KSAF 031319Z 0313/0412 36006KT P6SM SCT015 BKN070 
     TEMPO 0313/0315 SCT008 
     FM031900 30009KT P6SM FEW080 SCT100 
     FM040000 35007KT P6SM SKC 
     FM041000 36013KT P6SM SKC